Danville, Iowa
Current Conditions -  °F | °C
As of 9:53 AM on Friday 19 Dec 2014 (Local Time) from KBRL Reporting Station
Overcast Overcast  
Wind Chill: 22°   Ceiling: 5500
Heat Index: 28°   Visibility: 7mi
Dew Point: 22°   Wind: 6mph
Humidity: 78%   Direction: 90°E
Pressure: 30.33"   Gusts: NA
Location:  40.86°N, 91.31°W
Report Text: KBRL 191553Z AUTO 09005KT 7SM OVC055 M02/M06 A3033 RMK AO2 SLP279 T10221056
Loading
Personal Weather Stations






























Interactive Weather Map New forecast layout! Learn more

10-Day Weather Forecast

Advertisements
Track Severe Weather on mobile